Devers, Texas
Current Conditions -  °F | °C
As of 8:55 PM on Friday 21 Nov 2014 (Local Time) from KBMT Reporting Station
Overcast Overcast  
Wind Chill: 61°   Ceiling: 9500
Heat Index: 61°   Visibility: 10mi
Dew Point: 54°   Wind: 15mph
Humidity: 77%   Direction: 120°ESE
Pressure: 30.18"   Gusts: 22mph
Location:  30.03°N, 94.59°W
Report Text: KBMT 220255Z AUTO 12013G19KT 10SM SCT070 OVC095 16/12 A3018 RMK AO2 T01610120
Loading
Personal Weather Stations






























Interactive Weather Map New forecast layout! Learn more

10-Day Weather Forecast

Advertisements
Track Severe Weather on mobile